sensor_id;sensor_type;location;lat;lon;timestamp;P1;durP1;ratioP1;P2;durP2;ratioP2
18973;SDS011;9621;48.690;9.466;2023-06-26T00:00:10;11.70;;;8.80;;
18973;SDS011;9621;48.690;9.466;2023-06-26T00:02:38;11.15;;;8.18;;
18973;SDS011;9621;48.690;9.466;2023-06-26T00:05:05;11.30;;;8.00;;
18973;SDS011;9621;48.690;9.466;2023-06-26T00:07:32;14.70;;;8.50;;
18973;SDS011;9621;48.690;9.466;2023-06-26T00:10:00;10.55;;;7.93;;
18973;SDS011;9621;48.690;9.466;2023-06-26T00:12:27;13.13;;;8.13;;
18973;SDS011;9621;48.690;9.466;2023-06-26T00:14:56;15.10;;;8.75;;
18973;SDS011;9621;48.690;9.466;2023-06-26T00:17:23;11.82;;;8.80;;
18973;SDS011;9621;48.690;9.466;2023-06-26T00:19:50;11.50;;;8.20;;
18973;SDS011;9621;48.690;9.466;2023-06-26T00:22:17;12.65;;;8.38;;
18973;SDS011;9621;48.690;9.466;2023-06-26T00:24:44;12.13;;;8.82;;
18973;SDS011;9621;48.690;9.466;2023-06-26T00:27:11;12.25;;;8.50;;
18973;SDS011;9621;48.690;9.466;2023-06-26T00:29:38;11.18;;;7.57;;
18973;SDS011;9621;48.690;9.466;2023-06-26T00:32:07;13.45;;;8.07;;
18973;SDS011;9621;48.690;9.466;2023-06-26T00:34:34;10.57;;;7.53;;
18973;SDS011;9621;48.690;9.466;2023-06-26T00:37:01;11.40;;;8.30;;
18973;SDS011;9621;48.690;9.466;2023-06-26T00:39:29;10.00;;;7.80;;
18973;SDS011;9621;48.690;9.466;2023-06-26T00:41:56;11.27;;;8.07;;
18973;SDS011;9621;48.690;9.466;2023-06-26T00:44:23;11.82;;;8.70;;
18973;SDS011;9621;48.690;9.466;2023-06-26T00:46:50;9.63;;;7.43;;
18973;SDS011;9621;48.690;9.466;2023-06-26T00:49:18;11.10;;;8.35;;
18973;SDS011;9621;48.690;9.466;2023-06-26T00:51:45;12.77;;;8.70;;
18973;SDS011;9621;48.690;9.466;2023-06-26T00:54:13;11.95;;;8.65;;
18973;SDS011;9621;48.690;9.466;2023-06-26T00:56:45;13.35;;;8.88;;
18973;SDS011;9621;48.690;9.466;2023-06-26T00:59:12;14.35;;;8.80;;
18973;SDS011;9621;48.690;9.466;2023-06-26T01:01:39;12.68;;;8.38;;
18973;SDS011;9621;48.690;9.466;2023-06-26T01:04:07;10.75;;;8.23;;
18973;SDS011;9621;48.690;9.466;2023-06-26T01:06:44;13.63;;;8.65;;
18973;SDS011;9621;48.690;9.466;2023-06-26T01:09:14;14.00;;;8.65;;
18973;SDS011;9621;48.690;9.466;2023-06-26T01:11:43;10.77;;;8.27;;
18973;SDS011;9621;48.690;9.466;2023-06-26T01:14:09;14.57;;;9.63;;
18973;SDS011;9621;48.690;9.466;2023-06-26T01:16:37;13.15;;;9.13;;
18973;SDS011;9621;48.690;9.466;2023-06-26T01:19:05;11.93;;;8.45;;
18973;SDS011;9621;48.690;9.466;2023-06-26T01:21:37;12.77;;;8.55;;
18973;SDS011;9621;48.690;9.466;2023-06-26T01:24:12;13.55;;;8.52;;
18973;SDS011;9621;48.690;9.466;2023-06-26T01:26:46;12.73;;;8.40;;
18973;SDS011;9621;48.690;9.466;2023-06-26T01:29:16;13.27;;;8.70;;
18973;SDS011;9621;48.690;9.466;2023-06-26T01:31:44;13.20;;;8.27;;
18973;SDS011;9621;48.690;9.466;2023-06-26T01:34:14;12.02;;;8.35;;
18973;SDS011;9621;48.690;9.466;2023-06-26T01:36:41;10.52;;;8.05;;
18973;SDS011;9621;48.690;9.466;2023-06-26T01:39:10;12.68;;;8.35;;
18973;SDS011;9621;48.690;9.466;2023-06-26T01:41:36;11.68;;;7.60;;
18973;SDS011;9621;48.690;9.466;2023-06-26T01:44:09;11.88;;;8.50;;
18973;SDS011;9621;48.690;9.466;2023-06-26T01:46:43;13.02;;;9.18;;
18973;SDS011;9621;48.690;9.466;2023-06-26T01:49:18;11.57;;;8.02;;
18973;SDS011;9621;48.690;9.466;2023-06-26T01:51:54;12.48;;;8.57;;
18973;SDS011;9621;48.690;9.466;2023-06-26T01:54:24;10.98;;;7.88;;
18973;SDS011;9621;48.690;9.466;2023-06-26T01:56:55;11.02;;;8.18;;
18973;SDS011;9621;48.690;9.466;2023-06-26T01:59:26;13.93;;;8.50;;
18973;SDS011;9621;48.690;9.466;2023-06-26T02:01:56;11.02;;;8.10;;
18973;SDS011;9621;48.690;9.466;2023-06-26T02:04:22;11.50;;;8.50;;
18973;SDS011;9621;48.690;9.466;2023-06-26T02:06:49;13.90;;;8.63;;
18973;SDS011;9621;48.690;9.466;2023-06-26T02:09:16;12.50;;;8.55;;
18973;SDS011;9621;48.690;9.466;2023-06-26T02:11:43;11.25;;;8.50;;
18973;SDS011;9621;48.690;9.466;2023-06-26T02:14:10;13.30;;;9.05;;
18973;SDS011;9621;48.690;9.466;2023-06-26T02:16:38;15.52;;;9.27;;
18973;SDS011;9621;48.690;9.466;2023-06-26T02:19:05;13.90;;;8.68;;
18973;SDS011;9621;48.690;9.466;2023-06-26T02:21:32;15.32;;;8.57;;
18973;SDS011;9621;48.690;9.466;2023-06-26T02:24:00;12.18;;;9.38;;
18973;SDS011;9621;48.690;9.466;2023-06-26T02:26:27;12.20;;;9.00;;
18973;SDS011;9621;48.690;9.466;2023-06-26T02:28:54;12.93;;;9.13;;
18973;SDS011;9621;48.690;9.466;2023-06-26T02:31:21;13.23;;;8.65;;
18973;SDS011;9621;48.690;9.466;2023-06-26T02:33:49;12.73;;;8.70;;
18973;SDS011;9621;48.690;9.466;2023-06-26T02:36:16;12.95;;;8.57;;
18973;SDS011;9621;48.690;9.466;2023-06-26T02:38:43;13.73;;;8.85;;
18973;SDS011;9621;48.690;9.466;2023-06-26T02:41:10;11.10;;;8.35;;
18973;SDS011;9621;48.690;9.466;2023-06-26T02:43:40;12.55;;;9.10;;
18973;SDS011;9621;48.690;9.466;2023-06-26T02:46:06;11.95;;;8.93;;
18973;SDS011;9621;48.690;9.466;2023-06-26T02:48:33;15.77;;;9.45;;
18973;SDS011;9621;48.690;9.466;2023-06-26T02:51:02;13.20;;;9.48;;
18973;SDS011;9621;48.690;9.466;2023-06-26T02:53:28;13.88;;;9.10;;
18973;SDS011;9621;48.690;9.466;2023-06-26T02:55:56;13.70;;;9.30;;
18973;SDS011;9621;48.690;9.466;2023-06-26T02:58:23;16.23;;;9.05;;
18973;SDS011;9621;48.690;9.466;2023-06-26T03:00:50;12.57;;;8.85;;
18973;SDS011;9621;48.690;9.466;2023-06-26T03:03:18;12.45;;;8.43;;
18973;SDS011;9621;48.690;9.466;2023-06-26T03:05:45;13.27;;;9.38;;
18973;SDS011;9621;48.690;9.466;2023-06-26T03:08:13;14.63;;;9.48;;
18973;SDS011;9621;48.690;9.466;2023-06-26T03:10:41;12.88;;;8.65;;
18973;SDS011;9621;48.690;9.466;2023-06-26T03:13:08;14.95;;;9.43;;
18973;SDS011;9621;48.690;9.466;2023-06-26T03:15:35;13.02;;;8.93;;
18973;SDS011;9621;48.690;9.466;2023-06-26T03:18:02;15.25;;;9.88;;
18973;SDS011;9621;48.690;9.466;2023-06-26T03:20:29;12.80;;;9.52;;
18973;SDS011;9621;48.690;9.466;2023-06-26T03:22:55;12.57;;;8.80;;
18973;SDS011;9621;48.690;9.466;2023-06-26T03:25:24;20.50;;;10.70;;
18973;SDS011;9621;48.690;9.466;2023-06-26T03:27:50;14.13;;;9.50;;
18973;SDS011;9621;48.690;9.466;2023-06-26T03:30:18;13.60;;;9.30;;
18973;SDS011;9621;48.690;9.466;2023-06-26T03:32:44;13.50;;;9.32;;
18973;SDS011;9621;48.690;9.466;2023-06-26T03:35:11;12.32;;;9.30;;
18973;SDS011;9621;48.690;9.466;2023-06-26T03:37:38;14.10;;;9.32;;
18973;SDS011;9621;48.690;9.466;2023-06-26T03:40:05;12.68;;;9.10;;
18973;SDS011;9621;48.690;9.466;2023-06-26T03:42:35;11.80;;;8.75;;
18973;SDS011;9621;48.690;9.466;2023-06-26T03:45:02;13.45;;;9.48;;
18973;SDS011;9621;48.690;9.466;2023-06-26T03:47:29;12.23;;;8.55;;
18973;SDS011;9621;48.690;9.466;2023-06-26T03:50:06;13.65;;;9.00;;
18973;SDS011;9621;48.690;9.466;2023-06-26T03:52:33;15.02;;;9.50;;
18973;SDS011;9621;48.690;9.466;2023-06-26T03:55:00;12.95;;;8.98;;
18973;SDS011;9621;48.690;9.466;2023-06-26T03:57:28;13.82;;;8.80;;
18973;SDS011;9621;48.690;9.466;2023-06-26T03:59:56;13.38;;;9.25;;
18973;SDS011;9621;48.690;9.466;2023-06-26T04:02:23;12.25;;;9.07;;
18973;SDS011;9621;48.690;9.466;2023-06-26T04:04:50;12.55;;;9.55;;
18973;SDS011;9621;48.690;9.466;2023-06-26T04:07:17;14.90;;;9.55;;
18973;SDS011;9621;48.690;9.466;2023-06-26T04:09:44;12.10;;;8.52;;
18973;SDS011;9621;48.690;9.466;2023-06-26T04:12:11;14.82;;;8.82;;
18973;SDS011;9621;48.690;9.466;2023-06-26T04:14:38;11.20;;;9.25;;
18973;SDS011;9621;48.690;9.466;2023-06-26T04:17:06;17.80;;;9.15;;
18973;SDS011;9621;48.690;9.466;2023-06-26T04:19:33;13.90;;;8.70;;
18973;SDS011;9621;48.690;9.466;2023-06-26T04:22:01;13.52;;;8.73;;
18973;SDS011;9621;48.690;9.466;2023-06-26T04:24:28;15.15;;;9.43;;
18973;SDS011;9621;48.690;9.466;2023-06-26T04:26:55;12.90;;;9.15;;
18973;SDS011;9621;48.690;9.466;2023-06-26T04:29:22;12.15;;;8.93;;
18973;SDS011;9621;48.690;9.466;2023-06-26T04:31:50;11.73;;;9.25;;
18973;SDS011;9621;48.690;9.466;2023-06-26T04:34:18;14.07;;;8.85;;
18973;SDS011;9621;48.690;9.466;2023-06-26T04:36:45;12.13;;;8.82;;
18973;SDS011;9621;48.690;9.466;2023-06-26T04:39:13;12.70;;;8.52;;
18973;SDS011;9621;48.690;9.466;2023-06-26T04:41:40;11.35;;;7.95;;
18973;SDS011;9621;48.690;9.466;2023-06-26T04:44:07;12.57;;;8.45;;
18973;SDS011;9621;48.690;9.466;2023-06-26T04:46:36;10.38;;;8.38;;
18973;SDS011;9621;48.690;9.466;2023-06-26T04:49:06;12.65;;;8.90;;
18973;SDS011;9621;48.690;9.466;2023-06-26T04:51:34;12.00;;;8.55;;
18973;SDS011;9621;48.690;9.466;2023-06-26T04:54:05;9.98;;;7.57;;
18973;SDS011;9621;48.690;9.466;2023-06-26T04:56:32;11.13;;;8.07;;
18973;SDS011;9621;48.690;9.466;2023-06-26T04:58:59;9.68;;;7.88;;
18973;SDS011;9621;48.690;9.466;2023-06-26T05:01:25;10.25;;;7.63;;
18973;SDS011;9621;48.690;9.466;2023-06-26T05:03:54;10.30;;;8.15;;
18973;SDS011;9621;48.690;9.466;2023-06-26T05:06:22;12.75;;;8.60;;
18973;SDS011;9621;48.690;9.466;2023-06-26T05:08:50;9.82;;;7.85;;
18973;SDS011;9621;48.690;9.466;2023-06-26T05:11:17;12.05;;;8.10;;
18973;SDS011;9621;48.690;9.466;2023-06-26T05:13:44;10.75;;;7.85;;
18973;SDS011;9621;48.690;9.466;2023-06-26T05:16:11;14.60;;;8.60;;
18973;SDS011;9621;48.690;9.466;2023-06-26T05:18:37;11.15;;;8.30;;
18973;SDS011;9621;48.690;9.466;2023-06-26T05:21:04;10.77;;;7.38;;
18973;SDS011;9621;48.690;9.466;2023-06-26T05:23:32;13.75;;;8.40;;
18973;SDS011;9621;48.690;9.466;2023-06-26T05:26:01;11.88;;;7.78;;
18973;SDS011;9621;48.690;9.466;2023-06-26T05:28:29;10.00;;;8.30;;
18973;SDS011;9621;48.690;9.466;2023-06-26T05:30:57;11.32;;;8.00;;
18973;SDS011;9621;48.690;9.466;2023-06-26T05:33:25;13.70;;;8.35;;
18973;SDS011;9621;48.690;9.466;2023-06-26T05:35:53;11.85;;;8.68;;
18973;SDS011;9621;48.690;9.466;2023-06-26T05:38:20;10.52;;;8.07;;
18973;SDS011;9621;48.690;9.466;2023-06-26T05:40:48;11.18;;;7.78;;
18973;SDS011;9621;48.690;9.466;2023-06-26T05:43:17;13.65;;;7.30;;
18973;SDS011;9621;48.690;9.466;2023-06-26T05:45:46;10.27;;;7.85;;
18973;SDS011;9621;48.690;9.466;2023-06-26T05:48:13;13.10;;;8.63;;
18973;SDS011;9621;48.690;9.466;2023-06-26T05:50:40;11.48;;;8.07;;
18973;SDS011;9621;48.690;9.466;2023-06-26T05:53:08;10.52;;;7.72;;
18973;SDS011;9621;48.690;9.466;2023-06-26T05:55:36;9.48;;;7.60;;
18973;SDS011;9621;48.690;9.466;2023-06-26T05:58:04;12.63;;;7.63;;
18973;SDS011;9621;48.690;9.466;2023-06-26T06:00:33;10.27;;;7.28;;
18973;SDS011;9621;48.690;9.466;2023-06-26T06:03:01;10.68;;;7.65;;
18973;SDS011;9621;48.690;9.466;2023-06-26T06:05:28;8.88;;;7.30;;
18973;SDS011;9621;48.690;9.466;2023-06-26T06:07:55;9.82;;;7.82;;
18973;SDS011;9621;48.690;9.466;2023-06-26T06:10:22;9.98;;;7.45;;
18973;SDS011;9621;48.690;9.466;2023-06-26T06:12:49;10.15;;;6.95;;
18973;SDS011;9621;48.690;9.466;2023-06-26T06:15:17;9.18;;;7.03;;
18973;SDS011;9621;48.690;9.466;2023-06-26T06:17:45;9.65;;;7.28;;
18973;SDS011;9621;48.690;9.466;2023-06-26T06:20:12;11.15;;;7.78;;
18973;SDS011;9621;48.690;9.466;2023-06-26T06:22:39;8.63;;;7.35;;
18973;SDS011;9621;48.690;9.466;2023-06-26T06:25:06;9.15;;;7.45;;
18973;SDS011;9621;48.690;9.466;2023-06-26T06:27:36;11.63;;;7.32;;
18973;SDS011;9621;48.690;9.466;2023-06-26T06:30:03;9.68;;;7.13;;
18973;SDS011;9621;48.690;9.466;2023-06-26T06:32:30;8.90;;;7.25;;
18973;SDS011;9621;48.690;9.466;2023-06-26T06:34:58;8.98;;;7.15;;
18973;SDS011;9621;48.690;9.466;2023-06-26T06:37:29;10.05;;;7.40;;
18973;SDS011;9621;48.690;9.466;2023-06-26T06:39:56;8.77;;;6.93;;
18973;SDS011;9621;48.690;9.466;2023-06-26T06:42:24;8.32;;;6.75;;
18973;SDS011;9621;48.690;9.466;2023-06-26T06:44:51;8.95;;;7.05;;
18973;SDS011;9621;48.690;9.466;2023-06-26T06:47:18;11.25;;;7.40;;
18973;SDS011;9621;48.690;9.466;2023-06-26T06:49:46;9.82;;;6.78;;
18973;SDS011;9621;48.690;9.466;2023-06-26T06:52:14;12.50;;;6.78;;
18973;SDS011;9621;48.690;9.466;2023-06-26T06:54:51;9.15;;;6.85;;
18973;SDS011;9621;48.690;9.466;2023-06-26T06:57:18;8.98;;;6.35;;
18973;SDS011;9621;48.690;9.466;2023-06-26T06:59:46;7.60;;;6.60;;
18973;SDS011;9621;48.690;9.466;2023-06-26T07:02:13;9.70;;;6.75;;
18973;SDS011;9621;48.690;9.466;2023-06-26T07:04:41;9.80;;;6.60;;
18973;SDS011;9621;48.690;9.466;2023-06-26T07:07:07;8.95;;;6.95;;
18973;SDS011;9621;48.690;9.466;2023-06-26T07:09:36;7.53;;;6.28;;
18973;SDS011;9621;48.690;9.466;2023-06-26T07:12:03;8.50;;;6.15;;
18973;SDS011;9621;48.690;9.466;2023-06-26T07:14:31;7.43;;;6.05;;
18973;SDS011;9621;48.690;9.466;2023-06-26T07:16:57;7.47;;;6.18;;
18973;SDS011;9621;48.690;9.466;2023-06-26T07:19:24;7.82;;;5.85;;
18973;SDS011;9621;48.690;9.466;2023-06-26T07:21:51;7.25;;;5.63;;
18973;SDS011;9621;48.690;9.466;2023-06-26T07:24:18;7.75;;;5.85;;
18973;SDS011;9621;48.690;9.466;2023-06-26T07:26:46;6.75;;;5.07;;
18973;SDS011;9621;48.690;9.466;2023-06-26T07:29:13;7.40;;;5.55;;
18973;SDS011;9621;48.690;9.466;2023-06-26T07:31:39;9.18;;;5.35;;
18973;SDS011;9621;48.690;9.466;2023-06-26T07:34:09;7.72;;;5.70;;
18973;SDS011;9621;48.690;9.466;2023-06-26T07:36:36;5.85;;;5.22;;
18973;SDS011;9621;48.690;9.466;2023-06-26T07:39:03;7.55;;;5.63;;
18973;SDS011;9621;48.690;9.466;2023-06-26T07:41:30;7.00;;;5.28;;
18973;SDS011;9621;48.690;9.466;2023-06-26T07:43:58;6.40;;;5.13;;
18973;SDS011;9621;48.690;9.466;2023-06-26T07:46:25;7.15;;;5.18;;
18973;SDS011;9621;48.690;9.466;2023-06-26T07:48:52;8.63;;;5.13;;
18973;SDS011;9621;48.690;9.466;2023-06-26T07:51:20;7.18;;;4.75;;
18973;SDS011;9621;48.690;9.466;2023-06-26T07:53:47;6.57;;;5.10;;
18973;SDS011;9621;48.690;9.466;2023-06-26T07:56:14;10.10;;;5.30;;
18973;SDS011;9621;48.690;9.466;2023-06-26T07:58:41;10.38;;;5.45;;
18973;SDS011;9621;48.690;9.466;2023-06-26T08:01:10;7.45;;;5.28;;
18973;SDS011;9621;48.690;9.466;2023-06-26T08:03:37;6.75;;;5.05;;
18973;SDS011;9621;48.690;9.466;2023-06-26T08:06:05;6.95;;;5.53;;
18973;SDS011;9621;48.690;9.466;2023-06-26T08:08:35;6.18;;;5.20;;
18973;SDS011;9621;48.690;9.466;2023-06-26T08:11:02;7.75;;;5.57;;
18973;SDS011;9621;48.690;9.466;2023-06-26T08:13:29;6.43;;;4.53;;
18973;SDS011;9621;48.690;9.466;2023-06-26T08:15:56;6.38;;;5.32;;
18973;SDS011;9621;48.690;9.466;2023-06-26T08:18:24;8.18;;;5.10;;
18973;SDS011;9621;48.690;9.466;2023-06-26T08:20:51;6.72;;;5.13;;
18973;SDS011;9621;48.690;9.466;2023-06-26T08:23:18;5.70;;;5.07;;
18973;SDS011;9621;48.690;9.466;2023-06-26T08:25:44;8.52;;;5.30;;
18973;SDS011;9621;48.690;9.466;2023-06-26T08:28:12;6.32;;;4.97;;
18973;SDS011;9621;48.690;9.466;2023-06-26T08:30:39;9.35;;;5.20;;
18973;SDS011;9621;48.690;9.466;2023-06-26T08:33:05;6.07;;;5.22;;
18973;SDS011;9621;48.690;9.466;2023-06-26T08:35:38;6.18;;;4.93;;
18973;SDS011;9621;48.690;9.466;2023-06-26T08:38:05;5.63;;;4.90;;
18973;SDS011;9621;48.690;9.466;2023-06-26T08:40:34;5.30;;;4.80;;
18973;SDS011;9621;48.690;9.466;2023-06-26T08:43:02;6.72;;;5.38;;
18973;SDS011;9621;48.690;9.466;2023-06-26T08:45:29;6.97;;;5.47;;
18973;SDS011;9621;48.690;9.466;2023-06-26T08:47:56;7.28;;;5.03;;
18973;SDS011;9621;48.690;9.466;2023-06-26T08:50:27;5.07;;;4.47;;
18973;SDS011;9621;48.690;9.466;2023-06-26T08:52:59;5.35;;;4.78;;
18973;SDS011;9621;48.690;9.466;2023-06-26T08:55:32;5.45;;;4.95;;
18973;SDS011;9621;48.690;9.466;2023-06-26T08:58:02;4.88;;;4.40;;
18973;SDS011;9621;48.690;9.466;2023-06-26T09:00:29;5.63;;;4.78;;
18973;SDS011;9621;48.690;9.466;2023-06-26T09:02:57;4.95;;;4.40;;
18973;SDS011;9621;48.690;9.466;2023-06-26T09:05:24;5.57;;;4.88;;
18973;SDS011;9621;48.690;9.466;2023-06-26T09:07:52;6.22;;;4.95;;
18973;SDS011;9621;48.690;9.466;2023-06-26T09:10:21;7.95;;;4.90;;
18973;SDS011;9621;48.690;9.466;2023-06-26T09:12:48;5.35;;;4.70;;
18973;SDS011;9621;48.690;9.466;2023-06-26T09:15:16;5.40;;;4.88;;
18973;SDS011;9621;48.690;9.466;2023-06-26T09:17:45;8.77;;;5.15;;
18973;SDS011;9621;48.690;9.466;2023-06-26T09:20:14;5.78;;;4.60;;
18973;SDS011;9621;48.690;9.466;2023-06-26T09:22:41;5.82;;;5.22;;
18973;SDS011;9621;48.690;9.466;2023-06-26T09:25:09;6.68;;;4.65;;
18973;SDS011;9621;48.690;9.466;2023-06-26T09:27:37;7.22;;;4.93;;
18973;SDS011;9621;48.690;9.466;2023-06-26T09:30:05;6.18;;;4.97;;
18973;SDS011;9621;48.690;9.466;2023-06-26T09:32:33;4.85;;;4.30;;
18973;SDS011;9621;48.690;9.466;2023-06-26T09:35:02;7.18;;;5.53;;
18973;SDS011;9621;48.690;9.466;2023-06-26T09:37:29;7.22;;;4.90;;
18973;SDS011;9621;48.690;9.466;2023-06-26T09:39:57;7.55;;;5.10;;
18973;SDS011;9621;48.690;9.466;2023-06-26T09:42:23;6.25;;;5.10;;
18973;SDS011;9621;48.690;9.466;2023-06-26T09:44:52;6.85;;;5.28;;
18973;SDS011;9621;48.690;9.466;2023-06-26T09:47:19;5.68;;;5.07;;
18973;SDS011;9621;48.690;9.466;2023-06-26T09:49:47;5.38;;;4.70;;
18973;SDS011;9621;48.690;9.466;2023-06-26T09:52:14;7.93;;;4.90;;
18973;SDS011;9621;48.690;9.466;2023-06-26T09:54:42;6.57;;;4.45;;
18973;SDS011;9621;48.690;9.466;2023-06-26T09:57:11;6.65;;;4.82;;
18973;SDS011;9621;48.690;9.466;2023-06-26T09:59:39;8.65;;;5.50;;
18973;SDS011;9621;48.690;9.466;2023-06-26T10:02:09;4.80;;;4.30;;
18973;SDS011;9621;48.690;9.466;2023-06-26T10:04:37;5.75;;;4.72;;
18973;SDS011;9621;48.690;9.466;2023-06-26T10:07:04;5.57;;;4.85;;
18973;SDS011;9621;48.690;9.466;2023-06-26T10:09:34;5.53;;;4.80;;
18973;SDS011;9621;48.690;9.466;2023-06-26T10:12:06;4.57;;;4.00;;
18973;SDS011;9621;48.690;9.466;2023-06-26T10:14:35;6.50;;;4.40;;
18973;SDS011;9621;48.690;9.466;2023-06-26T10:17:06;6.85;;;4.88;;
18973;SDS011;9621;48.690;9.466;2023-06-26T10:19:36;8.70;;;4.93;;
18973;SDS011;9621;48.690;9.466;2023-06-26T10:22:05;6.03;;;4.95;;
18973;SDS011;9621;48.690;9.466;2023-06-26T10:24:33;5.30;;;4.60;;
18973;SDS011;9621;48.690;9.466;2023-06-26T10:27:02;5.28;;;4.50;;
18973;SDS011;9621;48.690;9.466;2023-06-26T10:29:34;5.43;;;4.38;;
18973;SDS011;9621;48.690;9.466;2023-06-26T10:32:02;4.90;;;4.40;;
18973;SDS011;9621;48.690;9.466;2023-06-26T10:34:34;5.00;;;4.40;;
18973;SDS011;9621;48.690;9.466;2023-06-26T10:37:02;6.05;;;4.28;;
18973;SDS011;9621;48.690;9.466;2023-06-26T10:39:46;5.22;;;4.60;;
18973;SDS011;9621;48.690;9.466;2023-06-26T10:42:14;5.07;;;4.57;;
18973;SDS011;9621;48.690;9.466;2023-06-26T10:44:42;6.90;;;4.78;;
18973;SDS011;9621;48.690;9.466;2023-06-26T10:47:09;5.55;;;4.40;;
18973;SDS011;9621;48.690;9.466;2023-06-26T10:49:38;5.72;;;5.18;;
18973;SDS011;9621;48.690;9.466;2023-06-26T10:52:07;8.90;;;4.68;;
18973;SDS011;9621;48.690;9.466;2023-06-26T10:54:34;5.43;;;4.93;;
18973;SDS011;9621;48.690;9.466;2023-06-26T10:57:03;9.52;;;4.97;;
18973;SDS011;9621;48.690;9.466;2023-06-26T10:59:33;5.10;;;4.60;;
18973;SDS011;9621;48.690;9.466;2023-06-26T11:02:00;7.10;;;4.90;;
18973;SDS011;9621;48.690;9.466;2023-06-26T11:07:16;7.03;;;4.88;;
18973;SDS011;9621;48.690;9.466;2023-06-26T11:09:54;5.50;;;4.88;;
18973;SDS011;9621;48.690;9.466;2023-06-26T11:12:34;7.47;;;4.80;;
18973;SDS011;9621;48.690;9.466;2023-06-26T11:15:07;5.60;;;5.00;;
18973;SDS011;9621;48.690;9.466;2023-06-26T11:17:34;8.75;;;6.20;;
18973;SDS011;9621;48.690;9.466;2023-06-26T11:20:04;8.15;;;5.78;;
18973;SDS011;9621;48.690;9.466;2023-06-26T11:22:33;9.95;;;6.22;;
18973;SDS011;9621;48.690;9.466;2023-06-26T11:25:02;10.02;;;6.47;;
18973;SDS011;9621;48.690;9.466;2023-06-26T11:27:31;9.52;;;5.50;;
18973;SDS011;9621;48.690;9.466;2023-06-26T11:29:58;8.10;;;6.03;;
18973;SDS011;9621;48.690;9.466;2023-06-26T11:32:26;7.97;;;5.68;;
18973;SDS011;9621;48.690;9.466;2023-06-26T11:34:54;6.60;;;5.55;;
18973;SDS011;9621;48.690;9.466;2023-06-26T11:37:22;6.72;;;5.55;;
18973;SDS011;9621;48.690;9.466;2023-06-26T11:39:49;9.23;;;6.05;;
18973;SDS011;9621;48.690;9.466;2023-06-26T11:42:16;7.18;;;5.55;;
18973;SDS011;9621;48.690;9.466;2023-06-26T11:44:43;6.80;;;5.45;;
18973;SDS011;9621;48.690;9.466;2023-06-26T11:47:14;11.18;;;6.13;;
18973;SDS011;9621;48.690;9.466;2023-06-26T11:49:42;6.93;;;5.22;;
18973;SDS011;9621;48.690;9.466;2023-06-26T11:52:09;8.57;;;5.95;;
18973;SDS011;9621;48.690;9.466;2023-06-26T11:54:37;6.32;;;5.25;;
18973;SDS011;9621;48.690;9.466;2023-06-26T11:57:05;6.40;;;5.35;;
18973;SDS011;9621;48.690;9.466;2023-06-26T11:59:33;8.20;;;5.45;;
18973;SDS011;9621;48.690;9.466;2023-06-26T12:02:04;7.80;;;5.55;;
18973;SDS011;9621;48.690;9.466;2023-06-26T12:04:32;7.78;;;5.80;;
18973;SDS011;9621;48.690;9.466;2023-06-26T12:07:01;7.10;;;5.28;;
18973;SDS011;9621;48.690;9.466;2023-06-26T12:09:30;8.15;;;5.13;;
18973;SDS011;9621;48.690;9.466;2023-06-26T12:12:00;9.45;;;6.03;;
18973;SDS011;9621;48.690;9.466;2023-06-26T12:14:28;9.38;;;5.68;;
18973;SDS011;9621;48.690;9.466;2023-06-26T12:16:55;7.10;;;5.50;;
18973;SDS011;9621;48.690;9.466;2023-06-26T12:19:25;7.13;;;5.68;;
18973;SDS011;9621;48.690;9.466;2023-06-26T12:21:52;7.60;;;5.95;;
18973;SDS011;9621;48.690;9.466;2023-06-26T12:24:22;6.65;;;5.35;;
18973;SDS011;9621;48.690;9.466;2023-06-26T12:26:51;7.25;;;5.90;;
18973;SDS011;9621;48.690;9.466;2023-06-26T12:29:28;9.55;;;5.28;;
18973;SDS011;9621;48.690;9.466;2023-06-26T12:31:57;6.47;;;5.53;;
18973;SDS011;9621;48.690;9.466;2023-06-26T12:34:26;7.88;;;5.32;;
18973;SDS011;9621;48.690;9.466;2023-06-26T12:36:59;7.03;;;5.18;;
18973;SDS011;9621;48.690;9.466;2023-06-26T12:39:27;6.90;;;5.85;;
18973;SDS011;9621;48.690;9.466;2023-06-26T12:41:55;6.53;;;5.63;;
18973;SDS011;9621;48.690;9.466;2023-06-26T12:44:28;6.80;;;5.80;;
18973;SDS011;9621;48.690;9.466;2023-06-26T12:46:56;10.38;;;5.75;;
18973;SDS011;9621;48.690;9.466;2023-06-26T12:49:30;7.20;;;5.93;;
18973;SDS011;9621;48.690;9.466;2023-06-26T12:51:59;10.02;;;5.53;;
18973;SDS011;9621;48.690;9.466;2023-06-26T12:54:26;6.30;;;5.32;;
18973;SDS011;9621;48.690;9.466;2023-06-26T12:56:53;8.52;;;5.50;;
18973;SDS011;9621;48.690;9.466;2023-06-26T12:59:20;7.63;;;5.25;;
18973;SDS011;9621;48.690;9.466;2023-06-26T13:01:48;7.38;;;5.43;;
18973;SDS011;9621;48.690;9.466;2023-06-26T13:04:16;8.00;;;5.53;;
18973;SDS011;9621;48.690;9.466;2023-06-26T13:06:43;7.47;;;4.53;;
18973;SDS011;9621;48.690;9.466;2023-06-26T13:09:10;6.13;;;5.53;;
18973;SDS011;9621;48.690;9.466;2023-06-26T13:11:37;7.15;;;5.20;;
18973;SDS011;9621;48.690;9.466;2023-06-26T13:14:04;6.22;;;5.55;;
18973;SDS011;9621;48.690;9.466;2023-06-26T13:16:31;10.88;;;5.80;;
18973;SDS011;9621;48.690;9.466;2023-06-26T13:18:59;7.03;;;5.78;;
18973;SDS011;9621;48.690;9.466;2023-06-26T13:21:27;10.40;;;5.15;;
18973;SDS011;9621;48.690;9.466;2023-06-26T13:23:54;7.55;;;5.13;;
18973;SDS011;9621;48.690;9.466;2023-06-26T13:26:21;7.63;;;5.70;;
18973;SDS011;9621;48.690;9.466;2023-06-26T13:28:48;8.75;;;5.90;;
18973;SDS011;9621;48.690;9.466;2023-06-26T13:31:15;6.75;;;5.10;;
18973;SDS011;9621;48.690;9.466;2023-06-26T13:33:42;8.48;;;5.75;;
18973;SDS011;9621;48.690;9.466;2023-06-26T13:36:12;9.15;;;5.22;;
18973;SDS011;9621;48.690;9.466;2023-06-26T13:38:39;7.93;;;5.28;;
18973;SDS011;9621;48.690;9.466;2023-06-26T13:41:06;9.98;;;6.10;;
18973;SDS011;9621;48.690;9.466;2023-06-26T13:43:33;5.80;;;4.85;;
18973;SDS011;9621;48.690;9.466;2023-06-26T13:46:00;7.30;;;5.32;;
18973;SDS011;9621;48.690;9.466;2023-06-26T13:48:27;6.85;;;4.88;;
18973;SDS011;9621;48.690;9.466;2023-06-26T13:50:55;7.80;;;6.07;;
18973;SDS011;9621;48.690;9.466;2023-06-26T13:53:23;7.03;;;5.38;;
18973;SDS011;9621;48.690;9.466;2023-06-26T13:55:50;8.00;;;5.70;;
18973;SDS011;9621;48.690;9.466;2023-06-26T13:58:17;6.22;;;5.07;;
18973;SDS011;9621;48.690;9.466;2023-06-26T14:00:47;9.52;;;5.68;;
18973;SDS011;9621;48.690;9.466;2023-06-26T14:03:14;9.15;;;5.55;;
18973;SDS011;9621;48.690;9.466;2023-06-26T14:05:42;8.07;;;5.43;;
18973;SDS011;9621;48.690;9.466;2023-06-26T14:08:09;9.82;;;5.45;;
18973;SDS011;9621;48.690;9.466;2023-06-26T14:10:38;6.03;;;5.30;;
18973;SDS011;9621;48.690;9.466;2023-06-26T14:13:05;6.85;;;5.20;;
18973;SDS011;9621;48.690;9.466;2023-06-26T14:15:32;6.35;;;5.65;;
18973;SDS011;9621;48.690;9.466;2023-06-26T14:17:59;7.40;;;5.57;;
18973;SDS011;9621;48.690;9.466;2023-06-26T14:20:28;6.63;;;5.30;;
18973;SDS011;9621;48.690;9.466;2023-06-26T14:22:57;6.85;;;5.18;;
18973;SDS011;9621;48.690;9.466;2023-06-26T14:25:38;9.05;;;5.13;;
18973;SDS011;9621;48.690;9.466;2023-06-26T14:28:04;9.23;;;5.03;;
18973;SDS011;9621;48.690;9.466;2023-06-26T14:30:32;5.65;;;4.90;;
18973;SDS011;9621;48.690;9.466;2023-06-26T14:32:59;6.25;;;5.00;;
18973;SDS011;9621;48.690;9.466;2023-06-26T14:35:25;6.97;;;5.07;;
18973;SDS011;9621;48.690;9.466;2023-06-26T14:37:52;6.70;;;5.00;;
18973;SDS011;9621;48.690;9.466;2023-06-26T14:40:19;6.18;;;5.00;;
18973;SDS011;9621;48.690;9.466;2023-06-26T14:42:47;11.45;;;5.40;;
18973;SDS011;9621;48.690;9.466;2023-06-26T14:45:14;6.47;;;4.75;;
18973;SDS011;9621;48.690;9.466;2023-06-26T14:47:41;5.68;;;4.90;;
18973;SDS011;9621;48.690;9.466;2023-06-26T14:50:08;7.95;;;4.82;;
18973;SDS011;9621;48.690;9.466;2023-06-26T14:52:35;10.68;;;5.38;;
18973;SDS011;9621;48.690;9.466;2023-06-26T14:55:02;6.55;;;4.78;;
18973;SDS011;9621;48.690;9.466;2023-06-26T14:57:30;6.55;;;4.45;;
18973;SDS011;9621;48.690;9.466;2023-06-26T14:59:58;7.93;;;4.18;;
18973;SDS011;9621;48.690;9.466;2023-06-26T15:02:25;7.97;;;4.43;;